sensor_id;sensor_type;location;lat;lon;timestamp;P1;durP1;ratioP1;P2;durP2;ratioP2
4533;SDS011;2279;51.448;7.306;2023-11-19T00:00:05;220.43;;;56.90;;
4533;SDS011;2279;51.448;7.306;2023-11-19T00:02:31;222.63;;;59.28;;
4533;SDS011;2279;51.448;7.306;2023-11-19T00:04:57;218.83;;;56.57;;
4533;SDS011;2279;51.448;7.306;2023-11-19T00:07:23;220.67;;;57.23;;
4533;SDS011;2279;51.448;7.306;2023-11-19T00:09:49;220.33;;;56.10;;
4533;SDS011;2279;51.448;7.306;2023-11-19T00:12:15;219.87;;;58.03;;
4533;SDS011;2279;51.448;7.306;2023-11-19T00:14:41;220.03;;;56.30;;
4533;SDS011;2279;51.448;7.306;2023-11-19T00:17:07;221.07;;;58.43;;
4533;SDS011;2279;51.448;7.306;2023-11-19T00:19:33;218.80;;;56.13;;
4533;SDS011;2279;51.448;7.306;2023-11-19T00:21:59;221.13;;;59.70;;
4533;SDS011;2279;51.448;7.306;2023-11-19T00:24:28;218.52;;;55.30;;
4533;SDS011;2279;51.448;7.306;2023-11-19T00:26:55;218.55;;;54.88;;
4533;SDS011;2279;51.448;7.306;2023-11-19T00:29:21;220.52;;;55.42;;
4533;SDS011;2279;51.448;7.306;2023-11-19T00:31:47;220.40;;;56.50;;
4533;SDS011;2279;51.448;7.306;2023-11-19T00:34:13;219.00;;;56.20;;
4533;SDS011;2279;51.448;7.306;2023-11-19T00:36:39;222.57;;;59.17;;
4533;SDS011;2279;51.448;7.306;2023-11-19T00:39:05;222.93;;;60.17;;
4533;SDS011;2279;51.448;7.306;2023-11-19T00:41:31;226.10;;;60.50;;
4533;SDS011;2279;51.448;7.306;2023-11-19T00:43:57;224.45;;;59.75;;
4533;SDS011;2279;51.448;7.306;2023-11-19T00:46:23;225.43;;;61.10;;
4533;SDS011;2279;51.448;7.306;2023-11-19T00:48:49;223.47;;;59.37;;
4533;SDS011;2279;51.448;7.306;2023-11-19T00:51:15;225.67;;;61.60;;
4533;SDS011;2279;51.448;7.306;2023-11-19T00:53:41;222.80;;;57.30;;
4533;SDS011;2279;51.448;7.306;2023-11-19T00:56:07;222.67;;;58.10;;
4533;SDS011;2279;51.448;7.306;2023-11-19T00:58:33;225.05;;;59.90;;
4533;SDS011;2279;51.448;7.306;2023-11-19T01:00:59;225.20;;;60.80;;
4533;SDS011;2279;51.448;7.306;2023-11-19T01:03:25;224.50;;;58.83;;
4533;SDS011;2279;51.448;7.306;2023-11-19T01:05:51;221.60;;;56.20;;
4533;SDS011;2279;51.448;7.306;2023-11-19T01:08:17;222.18;;;57.67;;
4533;SDS011;2279;51.448;7.306;2023-11-19T01:10:44;224.80;;;59.85;;
4533;SDS011;2279;51.448;7.306;2023-11-19T01:13:10;226.60;;;61.90;;
4533;SDS011;2279;51.448;7.306;2023-11-19T01:15:36;227.50;;;62.28;;
4533;SDS011;2279;51.448;7.306;2023-11-19T01:18:02;227.53;;;63.23;;
4533;SDS011;2279;51.448;7.306;2023-11-19T01:20:29;227.45;;;62.78;;
4533;SDS011;2279;51.448;7.306;2023-11-19T01:22:55;224.15;;;60.17;;
4533;SDS011;2279;51.448;7.306;2023-11-19T01:25:21;228.97;;;65.17;;
4533;SDS011;2279;51.448;7.306;2023-11-19T01:27:47;228.10;;;65.90;;
4533;SDS011;2279;51.448;7.306;2023-11-19T01:30:15;223.70;;;59.40;;
4533;SDS011;2279;51.448;7.306;2023-11-19T01:32:40;227.47;;;63.17;;
4533;SDS011;2279;51.448;7.306;2023-11-19T01:35:06;225.10;;;60.10;;
4533;SDS011;2279;51.448;7.306;2023-11-19T01:37:33;224.38;;;60.08;;
4533;SDS011;2279;51.448;7.306;2023-11-19T01:40:00;225.48;;;63.50;;
4533;SDS011;2279;51.448;7.306;2023-11-19T01:42:28;225.55;;;61.20;;
4533;SDS011;2279;51.448;7.306;2023-11-19T01:45:03;224.93;;;60.60;;
4533;SDS011;2279;51.448;7.306;2023-11-19T01:47:31;224.07;;;59.80;;
4533;SDS011;2279;51.448;7.306;2023-11-19T01:49:57;224.67;;;60.10;;
4533;SDS011;2279;51.448;7.306;2023-11-19T01:52:25;220.30;;;56.58;;
4533;SDS011;2279;51.448;7.306;2023-11-19T01:54:52;223.80;;;60.47;;
4533;SDS011;2279;51.448;7.306;2023-11-19T01:57:18;223.65;;;60.58;;
4533;SDS011;2279;51.448;7.306;2023-11-19T01:59:44;225.20;;;61.92;;
4533;SDS011;2279;51.448;7.306;2023-11-19T02:02:11;222.73;;;58.70;;
4533;SDS011;2279;51.448;7.306;2023-11-19T02:04:37;227.98;;;63.33;;
4533;SDS011;2279;51.448;7.306;2023-11-19T02:07:03;223.05;;;59.85;;
4533;SDS011;2279;51.448;7.306;2023-11-19T02:09:29;224.17;;;60.17;;
4533;SDS011;2279;51.448;7.306;2023-11-19T02:11:55;224.40;;;61.23;;
4533;SDS011;2279;51.448;7.306;2023-11-19T02:14:26;221.15;;;57.67;;
4533;SDS011;2279;51.448;7.306;2023-11-19T02:16:53;223.60;;;59.97;;
4533;SDS011;2279;51.448;7.306;2023-11-19T02:19:20;223.35;;;61.05;;
4533;SDS011;2279;51.448;7.306;2023-11-19T02:21:48;224.20;;;60.65;;
4533;SDS011;2279;51.448;7.306;2023-11-19T02:24:17;224.07;;;63.35;;
4533;SDS011;2279;51.448;7.306;2023-11-19T02:29:14;222.63;;;60.40;;
4533;SDS011;2279;51.448;7.306;2023-11-19T02:31:40;221.07;;;59.93;;
4533;SDS011;2279;51.448;7.306;2023-11-19T02:34:06;223.07;;;60.37;;
4533;SDS011;2279;51.448;7.306;2023-11-19T02:36:32;221.13;;;59.37;;
4533;SDS011;2279;51.448;7.306;2023-11-19T02:38:58;224.33;;;61.70;;
4533;SDS011;2279;51.448;7.306;2023-11-19T02:41:24;223.25;;;60.28;;
4533;SDS011;2279;51.448;7.306;2023-11-19T02:43:50;223.43;;;60.60;;
4533;SDS011;2279;51.448;7.306;2023-11-19T02:46:16;220.50;;;57.90;;
4533;SDS011;2279;51.448;7.306;2023-11-19T02:48:42;223.27;;;59.37;;
4533;SDS011;2279;51.448;7.306;2023-11-19T02:51:10;223.55;;;60.72;;
4533;SDS011;2279;51.448;7.306;2023-11-19T02:53:37;223.47;;;61.57;;
4533;SDS011;2279;51.448;7.306;2023-11-19T02:56:04;223.40;;;62.97;;
4533;SDS011;2279;51.448;7.306;2023-11-19T02:58:44;223.65;;;61.92;;
4533;SDS011;2279;51.448;7.306;2023-11-19T03:01:11;222.95;;;59.78;;
4533;SDS011;2279;51.448;7.306;2023-11-19T03:03:48;221.70;;;60.60;;
4533;SDS011;2279;51.448;7.306;2023-11-19T03:06:19;222.05;;;58.50;;
4533;SDS011;2279;51.448;7.306;2023-11-19T03:08:46;225.40;;;63.33;;
4533;SDS011;2279;51.448;7.306;2023-11-19T03:11:13;222.45;;;60.05;;
4533;SDS011;2279;51.448;7.306;2023-11-19T03:13:39;222.60;;;62.07;;
4533;SDS011;2279;51.448;7.306;2023-11-19T03:16:05;224.32;;;61.40;;
4533;SDS011;2279;51.448;7.306;2023-11-19T03:18:31;223.73;;;61.60;;
4533;SDS011;2279;51.448;7.306;2023-11-19T03:20:57;222.98;;;59.08;;
4533;SDS011;2279;51.448;7.306;2023-11-19T03:23:24;223.80;;;60.87;;
4533;SDS011;2279;51.448;7.306;2023-11-19T03:25:52;222.77;;;59.03;;
4533;SDS011;2279;51.448;7.306;2023-11-19T03:28:18;221.87;;;58.37;;
4533;SDS011;2279;51.448;7.306;2023-11-19T03:30:44;223.50;;;61.90;;
4533;SDS011;2279;51.448;7.306;2023-11-19T03:33:10;220.63;;;56.90;;
4533;SDS011;2279;51.448;7.306;2023-11-19T03:35:36;227.10;;;62.90;;
4533;SDS011;2279;51.448;7.306;2023-11-19T03:38:02;222.30;;;57.92;;
4533;SDS011;2279;51.448;7.306;2023-11-19T03:40:28;221.47;;;59.70;;
4533;SDS011;2279;51.448;7.306;2023-11-19T03:42:57;222.52;;;60.22;;
4533;SDS011;2279;51.448;7.306;2023-11-19T03:45:23;223.27;;;61.65;;
4533;SDS011;2279;51.448;7.306;2023-11-19T03:47:50;222.80;;;60.03;;
4533;SDS011;2279;51.448;7.306;2023-11-19T03:50:16;223.23;;;61.78;;
4533;SDS011;2279;51.448;7.306;2023-11-19T03:52:44;223.55;;;59.97;;
4533;SDS011;2279;51.448;7.306;2023-11-19T03:55:10;224.50;;;63.47;;
4533;SDS011;2279;51.448;7.306;2023-11-19T03:57:38;225.48;;;63.60;;
4533;SDS011;2279;51.448;7.306;2023-11-19T04:00:04;226.57;;;65.05;;
4533;SDS011;2279;51.448;7.306;2023-11-19T04:02:34;222.20;;;58.83;;
4533;SDS011;2279;51.448;7.306;2023-11-19T04:05:00;221.33;;;59.83;;
4533;SDS011;2279;51.448;7.306;2023-11-19T04:07:26;222.15;;;58.53;;
4533;SDS011;2279;51.448;7.306;2023-11-19T04:09:52;222.60;;;59.83;;
4533;SDS011;2279;51.448;7.306;2023-11-19T04:12:18;223.47;;;61.13;;
4533;SDS011;2279;51.448;7.306;2023-11-19T04:14:44;223.93;;;59.53;;
4533;SDS011;2279;51.448;7.306;2023-11-19T04:17:10;219.83;;;57.67;;
4533;SDS011;2279;51.448;7.306;2023-11-19T04:19:36;221.60;;;60.53;;
4533;SDS011;2279;51.448;7.306;2023-11-19T04:22:02;221.73;;;58.75;;
4533;SDS011;2279;51.448;7.306;2023-11-19T04:24:28;221.73;;;59.08;;
4533;SDS011;2279;51.448;7.306;2023-11-19T04:26:55;221.25;;;58.47;;
4533;SDS011;2279;51.448;7.306;2023-11-19T04:29:21;221.07;;;59.97;;
4533;SDS011;2279;51.448;7.306;2023-11-19T04:31:47;224.07;;;60.83;;
4533;SDS011;2279;51.448;7.306;2023-11-19T04:34:13;221.23;;;59.93;;
4533;SDS011;2279;51.448;7.306;2023-11-19T04:36:39;220.47;;;57.90;;
4533;SDS011;2279;51.448;7.306;2023-11-19T04:39:05;221.05;;;58.90;;
4533;SDS011;2279;51.448;7.306;2023-11-19T04:41:47;221.15;;;59.03;;
4533;SDS011;2279;51.448;7.306;2023-11-19T04:44:14;221.25;;;60.20;;
4533;SDS011;2279;51.448;7.306;2023-11-19T04:46:40;223.13;;;60.78;;
4533;SDS011;2279;51.448;7.306;2023-11-19T04:49:08;224.05;;;61.50;;
4533;SDS011;2279;51.448;7.306;2023-11-19T04:51:41;220.70;;;58.25;;
4533;SDS011;2279;51.448;7.306;2023-11-19T04:54:08;223.50;;;59.45;;
4533;SDS011;2279;51.448;7.306;2023-11-19T04:56:34;222.68;;;60.75;;
4533;SDS011;2279;51.448;7.306;2023-11-19T04:59:02;224.23;;;62.28;;
4533;SDS011;2279;51.448;7.306;2023-11-19T05:01:28;220.13;;;57.65;;
4533;SDS011;2279;51.448;7.306;2023-11-19T05:03:54;219.37;;;56.67;;
4533;SDS011;2279;51.448;7.306;2023-11-19T05:06:20;220.57;;;57.20;;
4533;SDS011;2279;51.448;7.306;2023-11-19T05:08:46;220.30;;;57.87;;
4533;SDS011;2279;51.448;7.306;2023-11-19T05:11:11;222.13;;;60.40;;
4533;SDS011;2279;51.448;7.306;2023-11-19T05:13:42;221.43;;;58.35;;
4533;SDS011;2279;51.448;7.306;2023-11-19T05:16:10;223.15;;;61.55;;
4533;SDS011;2279;51.448;7.306;2023-11-19T05:18:36;221.88;;;59.22;;
4533;SDS011;2279;51.448;7.306;2023-11-19T05:21:02;221.23;;;58.97;;
4533;SDS011;2279;51.448;7.306;2023-11-19T05:23:28;217.90;;;55.67;;
4533;SDS011;2279;51.448;7.306;2023-11-19T05:25:54;223.10;;;60.33;;
4533;SDS011;2279;51.448;7.306;2023-11-19T05:28:20;223.77;;;63.37;;
4533;SDS011;2279;51.448;7.306;2023-11-19T05:30:46;223.60;;;60.00;;
4533;SDS011;2279;51.448;7.306;2023-11-19T05:33:12;220.00;;;57.85;;
4533;SDS011;2279;51.448;7.306;2023-11-19T05:35:38;225.23;;;63.90;;
4533;SDS011;2279;51.448;7.306;2023-11-19T05:38:04;220.07;;;56.50;;
4533;SDS011;2279;51.448;7.306;2023-11-19T05:40:31;220.63;;;57.90;;
4533;SDS011;2279;51.448;7.306;2023-11-19T05:42:56;220.63;;;58.20;;
4533;SDS011;2279;51.448;7.306;2023-11-19T05:45:22;221.17;;;59.60;;
4533;SDS011;2279;51.448;7.306;2023-11-19T05:47:48;223.07;;;60.70;;
4533;SDS011;2279;51.448;7.306;2023-11-19T05:50:16;220.30;;;57.65;;
4533;SDS011;2279;51.448;7.306;2023-11-19T05:52:42;221.77;;;60.17;;
4533;SDS011;2279;51.448;7.306;2023-11-19T05:55:08;217.07;;;54.97;;
4533;SDS011;2279;51.448;7.306;2023-11-19T05:57:35;222.50;;;61.45;;
4533;SDS011;2279;51.448;7.306;2023-11-19T06:00:01;223.82;;;61.72;;
4533;SDS011;2279;51.448;7.306;2023-11-19T06:02:31;222.73;;;60.97;;
4533;SDS011;2279;51.448;7.306;2023-11-19T06:04:58;222.45;;;59.28;;
4533;SDS011;2279;51.448;7.306;2023-11-19T06:07:24;220.60;;;57.80;;
4533;SDS011;2279;51.448;7.306;2023-11-19T06:09:50;222.75;;;60.20;;
4533;SDS011;2279;51.448;7.306;2023-11-19T06:12:16;222.30;;;59.53;;
4533;SDS011;2279;51.448;7.306;2023-11-19T06:14:42;221.63;;;57.03;;
4533;SDS011;2279;51.448;7.306;2023-11-19T06:17:08;218.40;;;55.17;;
4533;SDS011;2279;51.448;7.306;2023-11-19T06:19:36;220.43;;;58.03;;
4533;SDS011;2279;51.448;7.306;2023-11-19T06:22:03;221.32;;;57.75;;
4533;SDS011;2279;51.448;7.306;2023-11-19T06:24:29;222.65;;;60.88;;
4533;SDS011;2279;51.448;7.306;2023-11-19T06:26:55;222.00;;;58.57;;
4533;SDS011;2279;51.448;7.306;2023-11-19T06:29:21;222.80;;;60.47;;
4533;SDS011;2279;51.448;7.306;2023-11-19T06:31:47;221.87;;;57.70;;
4533;SDS011;2279;51.448;7.306;2023-11-19T06:34:14;222.25;;;59.03;;
4533;SDS011;2279;51.448;7.306;2023-11-19T06:36:40;221.27;;;56.67;;
4533;SDS011;2279;51.448;7.306;2023-11-19T06:39:07;224.40;;;61.47;;
4533;SDS011;2279;51.448;7.306;2023-11-19T06:41:33;222.77;;;59.53;;
4533;SDS011;2279;51.448;7.306;2023-11-19T06:43:59;221.67;;;60.00;;
4533;SDS011;2279;51.448;7.306;2023-11-19T06:46:25;224.13;;;62.10;;
4533;SDS011;2279;51.448;7.306;2023-11-19T06:48:51;223.47;;;62.13;;
4533;SDS011;2279;51.448;7.306;2023-11-19T06:51:17;221.50;;;58.60;;
4533;SDS011;2279;51.448;7.306;2023-11-19T06:53:43;223.10;;;61.80;;
4533;SDS011;2279;51.448;7.306;2023-11-19T06:56:21;223.30;;;62.45;;
4533;SDS011;2279;51.448;7.306;2023-11-19T06:58:48;220.85;;;59.03;;
4533;SDS011;2279;51.448;7.306;2023-11-19T07:01:15;220.38;;;57.90;;
4533;SDS011;2279;51.448;7.306;2023-11-19T07:03:41;221.80;;;59.72;;
4533;SDS011;2279;51.448;7.306;2023-11-19T07:06:07;220.13;;;56.15;;
4533;SDS011;2279;51.448;7.306;2023-11-19T07:08:33;219.65;;;57.22;;
4533;SDS011;2279;51.448;7.306;2023-11-19T07:10:59;223.85;;;60.95;;
4533;SDS011;2279;51.448;7.306;2023-11-19T07:13:25;227.07;;;65.50;;
4533;SDS011;2279;51.448;7.306;2023-11-19T07:15:53;222.10;;;60.45;;
4533;SDS011;2279;51.448;7.306;2023-11-19T07:18:19;220.32;;;59.80;;
4533;SDS011;2279;51.448;7.306;2023-11-19T07:20:47;222.60;;;60.92;;
4533;SDS011;2279;51.448;7.306;2023-11-19T07:23:13;222.80;;;59.00;;
4533;SDS011;2279;51.448;7.306;2023-11-19T07:25:41;222.95;;;60.45;;
4533;SDS011;2279;51.448;7.306;2023-11-19T07:28:08;221.32;;;58.67;;
4533;SDS011;2279;51.448;7.306;2023-11-19T07:30:34;225.55;;;62.85;;
4533;SDS011;2279;51.448;7.306;2023-11-19T07:33:00;225.60;;;65.70;;
4533;SDS011;2279;51.448;7.306;2023-11-19T07:35:29;232.27;;;70.82;;
4533;SDS011;2279;51.448;7.306;2023-11-19T07:37:55;222.52;;;60.58;;
4533;SDS011;2279;51.448;7.306;2023-11-19T07:40:22;223.48;;;59.38;;
4533;SDS011;2279;51.448;7.306;2023-11-19T07:42:48;222.13;;;59.37;;
4533;SDS011;2279;51.448;7.306;2023-11-19T07:45:14;223.82;;;61.90;;
4533;SDS011;2279;51.448;7.306;2023-11-19T07:47:40;222.18;;;59.05;;
4533;SDS011;2279;51.448;7.306;2023-11-19T07:50:06;238.13;;;75.33;;
4533;SDS011;2279;51.448;7.306;2023-11-19T07:52:32;222.93;;;61.97;;
4533;SDS011;2279;51.448;7.306;2023-11-19T07:54:58;225.73;;;64.60;;
4533;SDS011;2279;51.448;7.306;2023-11-19T07:57:24;225.57;;;63.17;;
4533;SDS011;2279;51.448;7.306;2023-11-19T07:59:52;226.48;;;60.15;;
4533;SDS011;2279;51.448;7.306;2023-11-19T08:02:18;223.85;;;63.78;;
4533;SDS011;2279;51.448;7.306;2023-11-19T08:04:44;225.35;;;62.95;;
4533;SDS011;2279;51.448;7.306;2023-11-19T08:07:11;223.68;;;59.67;;
4533;SDS011;2279;51.448;7.306;2023-11-19T08:09:40;223.52;;;60.28;;
4533;SDS011;2279;51.448;7.306;2023-11-19T08:12:06;223.87;;;61.60;;
4533;SDS011;2279;51.448;7.306;2023-11-19T08:14:32;227.05;;;63.20;;
4533;SDS011;2279;51.448;7.306;2023-11-19T08:16:58;242.50;;;75.23;;
4533;SDS011;2279;51.448;7.306;2023-11-19T08:19:24;222.57;;;61.17;;
4533;SDS011;2279;51.448;7.306;2023-11-19T08:21:50;228.97;;;66.77;;
4533;SDS011;2279;51.448;7.306;2023-11-19T08:24:16;227.73;;;66.57;;
4533;SDS011;2279;51.448;7.306;2023-11-19T08:26:42;225.77;;;64.07;;
4533;SDS011;2279;51.448;7.306;2023-11-19T08:29:08;229.73;;;67.53;;
4533;SDS011;2279;51.448;7.306;2023-11-19T08:31:34;226.90;;;63.28;;
4533;SDS011;2279;51.448;7.306;2023-11-19T08:34:00;227.57;;;66.50;;
4533;SDS011;2279;51.448;7.306;2023-11-19T08:36:26;227.60;;;67.95;;
4533;SDS011;2279;51.448;7.306;2023-11-19T08:38:53;225.63;;;63.95;;
4533;SDS011;2279;51.448;7.306;2023-11-19T08:41:19;228.35;;;65.30;;
4533;SDS011;2279;51.448;7.306;2023-11-19T08:43:45;230.93;;;69.57;;
4533;SDS011;2279;51.448;7.306;2023-11-19T08:46:11;227.77;;;63.30;;
4533;SDS011;2279;51.448;7.306;2023-11-19T08:48:37;226.73;;;64.97;;
4533;SDS011;2279;51.448;7.306;2023-11-19T08:51:04;232.30;;;67.97;;
4533;SDS011;2279;51.448;7.306;2023-11-19T08:53:30;225.00;;;62.95;;
4533;SDS011;2279;51.448;7.306;2023-11-19T08:55:55;232.03;;;69.03;;
4533;SDS011;2279;51.448;7.306;2023-11-19T08:58:21;228.50;;;64.17;;
4533;SDS011;2279;51.448;7.306;2023-11-19T09:00:47;229.17;;;65.97;;
4533;SDS011;2279;51.448;7.306;2023-11-19T09:03:13;246.57;;;79.97;;
4533;SDS011;2279;51.448;7.306;2023-11-19T09:05:39;236.40;;;74.47;;
4533;SDS011;2279;51.448;7.306;2023-11-19T09:08:06;229.87;;;68.70;;
4533;SDS011;2279;51.448;7.306;2023-11-19T09:10:32;236.98;;;77.13;;
4533;SDS011;2279;51.448;7.306;2023-11-19T09:12:58;237.37;;;73.70;;
4533;SDS011;2279;51.448;7.306;2023-11-19T09:15:24;231.90;;;71.87;;
4533;SDS011;2279;51.448;7.306;2023-11-19T09:17:53;231.90;;;69.77;;
4533;SDS011;2279;51.448;7.306;2023-11-19T09:20:19;236.97;;;75.07;;
4533;SDS011;2279;51.448;7.306;2023-11-19T09:22:45;234.45;;;72.10;;
4533;SDS011;2279;51.448;7.306;2023-11-19T09:25:11;245.02;;;80.38;;
4533;SDS011;2279;51.448;7.306;2023-11-19T09:27:41;239.40;;;79.90;;
4533;SDS011;2279;51.448;7.306;2023-11-19T09:30:07;240.20;;;76.73;;
4533;SDS011;2279;51.448;7.306;2023-11-19T09:32:33;237.53;;;76.67;;
4533;SDS011;2279;51.448;7.306;2023-11-19T09:34:59;236.87;;;74.03;;
4533;SDS011;2279;51.448;7.306;2023-11-19T09:37:25;238.13;;;76.43;;
4533;SDS011;2279;51.448;7.306;2023-11-19T09:39:51;241.83;;;81.27;;
4533;SDS011;2279;51.448;7.306;2023-11-19T09:42:18;236.60;;;76.00;;
4533;SDS011;2279;51.448;7.306;2023-11-19T09:44:44;239.18;;;77.85;;
4533;SDS011;2279;51.448;7.306;2023-11-19T09:47:11;237.47;;;76.27;;
4533;SDS011;2279;51.448;7.306;2023-11-19T09:49:37;233.13;;;70.40;;
4533;SDS011;2279;51.448;7.306;2023-11-19T09:52:04;238.15;;;77.43;;
4533;SDS011;2279;51.448;7.306;2023-11-19T09:54:30;235.60;;;74.60;;
4533;SDS011;2279;51.448;7.306;2023-11-19T09:56:57;235.48;;;73.13;;
4533;SDS011;2279;51.448;7.306;2023-11-19T09:59:27;231.32;;;68.32;;
4533;SDS011;2279;51.448;7.306;2023-11-19T10:01:54;234.77;;;74.30;;
4533;SDS011;2279;51.448;7.306;2023-11-19T10:04:20;235.13;;;74.82;;
4533;SDS011;2279;51.448;7.306;2023-11-19T10:06:47;239.13;;;76.72;;
4533;SDS011;2279;51.448;7.306;2023-11-19T10:09:13;239.03;;;79.03;;
4533;SDS011;2279;51.448;7.306;2023-11-19T10:11:40;236.07;;;73.57;;
4533;SDS011;2279;51.448;7.306;2023-11-19T10:14:06;242.77;;;82.27;;
4533;SDS011;2279;51.448;7.306;2023-11-19T10:16:34;240.57;;;77.67;;
4533;SDS011;2279;51.448;7.306;2023-11-19T10:19:00;240.93;;;78.97;;
4533;SDS011;2279;51.448;7.306;2023-11-19T10:21:26;245.67;;;83.10;;
4533;SDS011;2279;51.448;7.306;2023-11-19T10:23:55;243.70;;;85.63;;
4533;SDS011;2279;51.448;7.306;2023-11-19T10:26:25;244.83;;;85.50;;
4533;SDS011;2279;51.448;7.306;2023-11-19T10:28:52;240.33;;;82.23;;
4533;SDS011;2279;51.448;7.306;2023-11-19T10:31:19;245.27;;;86.90;;
4533;SDS011;2279;51.448;7.306;2023-11-19T10:33:50;243.57;;;83.63;;
4533;SDS011;2279;51.448;7.306;2023-11-19T10:36:16;246.57;;;89.80;;
4533;SDS011;2279;51.448;7.306;2023-11-19T10:38:55;245.50;;;90.07;;
4533;SDS011;2279;51.448;7.306;2023-11-19T10:41:31;239.83;;;79.53;;
4533;SDS011;2279;51.448;7.306;2023-11-19T10:43:57;240.32;;;82.15;;
4533;SDS011;2279;51.448;7.306;2023-11-19T10:46:23;241.47;;;82.37;;
4533;SDS011;2279;51.448;7.306;2023-11-19T10:49:01;236.13;;;72.63;;
4533;SDS011;2279;51.448;7.306;2023-11-19T10:51:27;240.70;;;79.50;;
4533;SDS011;2279;51.448;7.306;2023-11-19T10:53:54;236.90;;;75.63;;
4533;SDS011;2279;51.448;7.306;2023-11-19T10:56:25;236.70;;;74.93;;
4533;SDS011;2279;51.448;7.306;2023-11-19T10:58:51;235.73;;;73.33;;
4533;SDS011;2279;51.448;7.306;2023-11-19T11:01:20;235.95;;;72.82;;
4533;SDS011;2279;51.448;7.306;2023-11-19T11:03:50;234.43;;;72.37;;
4533;SDS011;2279;51.448;7.306;2023-11-19T11:06:18;235.87;;;77.73;;
4533;SDS011;2279;51.448;7.306;2023-11-19T11:08:44;234.65;;;73.28;;
4533;SDS011;2279;51.448;7.306;2023-11-19T11:11:11;238.30;;;77.65;;
4533;SDS011;2279;51.448;7.306;2023-11-19T11:13:39;234.70;;;71.95;;
4533;SDS011;2279;51.448;7.306;2023-11-19T11:16:06;237.52;;;76.60;;
4533;SDS011;2279;51.448;7.306;2023-11-19T11:18:33;234.10;;;67.90;;
4533;SDS011;2279;51.448;7.306;2023-11-19T11:21:07;233.30;;;69.37;;
4533;SDS011;2279;51.448;7.306;2023-11-19T11:23:42;238.55;;;77.80;;
4533;SDS011;2279;51.448;7.306;2023-11-19T11:34:01;234.07;;;73.23;;
4533;SDS011;2279;51.448;7.306;2023-11-19T11:36:31;235.27;;;72.77;;
4533;SDS011;2279;51.448;7.306;2023-11-19T11:39:02;233.47;;;71.90;;
4533;SDS011;2279;51.448;7.306;2023-11-19T11:41:32;235.23;;;73.23;;
4533;SDS011;2279;51.448;7.306;2023-11-19T11:43:58;234.13;;;72.40;;
4533;SDS011;2279;51.448;7.306;2023-11-19T11:54:09;239.87;;;80.57;;
4533;SDS011;2279;51.448;7.306;2023-11-19T11:56:38;236.97;;;77.07;;
4533;SDS011;2279;51.448;7.306;2023-11-19T11:59:08;243.97;;;86.30;;
4533;SDS011;2279;51.448;7.306;2023-11-19T12:01:35;245.77;;;86.07;;
4533;SDS011;2279;51.448;7.306;2023-11-19T12:04:01;244.40;;;85.73;;
4533;SDS011;2279;51.448;7.306;2023-11-19T12:06:27;242.90;;;86.28;;
4533;SDS011;2279;51.448;7.306;2023-11-19T12:08:57;241.00;;;81.07;;
4533;SDS011;2279;51.448;7.306;2023-11-19T12:11:25;242.97;;;83.10;;
4533;SDS011;2279;51.448;7.306;2023-11-19T12:13:53;241.93;;;83.93;;
4533;SDS011;2279;51.448;7.306;2023-11-19T12:16:21;240.97;;;81.10;;
4533;SDS011;2279;51.448;7.306;2023-11-19T12:18:47;243.20;;;87.47;;
4533;SDS011;2279;51.448;7.306;2023-11-19T12:21:27;243.23;;;84.73;;
4533;SDS011;2279;51.448;7.306;2023-11-19T12:23:54;237.67;;;80.40;;
4533;SDS011;2279;51.448;7.306;2023-11-19T12:26:36;240.03;;;82.23;;
4533;SDS011;2279;51.448;7.306;2023-11-19T12:29:02;237.63;;;76.77;;
4533;SDS011;2279;51.448;7.306;2023-11-19T12:31:29;238.33;;;79.60;;
4533;SDS011;2279;51.448;7.306;2023-11-19T12:33:55;238.10;;;78.00;;
4533;SDS011;2279;51.448;7.306;2023-11-19T12:36:21;242.97;;;86.07;;
4533;SDS011;2279;51.448;7.306;2023-11-19T12:38:47;239.97;;;81.43;;
4533;SDS011;2279;51.448;7.306;2023-11-19T12:41:14;238.17;;;78.33;;
4533;SDS011;2279;51.448;7.306;2023-11-19T12:43:45;236.57;;;76.67;;
4533;SDS011;2279;51.448;7.306;2023-11-19T12:48:44;235.23;;;74.53;;
4533;SDS011;2279;51.448;7.306;2023-11-19T12:51:10;239.17;;;82.20;;
4533;SDS011;2279;51.448;7.306;2023-11-19T12:53:49;243.67;;;84.10;;
4533;SDS011;2279;51.448;7.306;2023-11-19T12:56:17;239.18;;;80.55;;
4533;SDS011;2279;51.448;7.306;2023-11-19T12:58:43;239.37;;;81.67;;
4533;SDS011;2279;51.448;7.306;2023-11-19T13:01:10;234.85;;;74.70;;
4533;SDS011;2279;51.448;7.306;2023-11-19T13:03:41;236.15;;;76.55;;
4533;SDS011;2279;51.448;7.306;2023-11-19T13:06:08;237.43;;;78.03;;
4533;SDS011;2279;51.448;7.306;2023-11-19T13:08:44;234.55;;;73.50;;
4533;SDS011;2279;51.448;7.306;2023-11-19T13:11:10;237.07;;;77.05;;
4533;SDS011;2279;51.448;7.306;2023-11-19T13:13:55;235.48;;;71.90;;
4533;SDS011;2279;51.448;7.306;2023-11-19T13:16:22;235.20;;;70.90;;
4533;SDS011;2279;51.448;7.306;2023-11-19T13:18:48;241.23;;;78.18;;
4533;SDS011;2279;51.448;7.306;2023-11-19T13:21:14;235.97;;;73.63;;
4533;SDS011;2279;51.448;7.306;2023-11-19T13:23:40;232.70;;;69.43;;
4533;SDS011;2279;51.448;7.306;2023-11-19T13:26:06;234.85;;;70.53;;
4533;SDS011;2279;51.448;7.306;2023-11-19T13:28:32;230.98;;;66.13;;
4533;SDS011;2279;51.448;7.306;2023-11-19T13:30:58;235.50;;;71.63;;
4533;SDS011;2279;51.448;7.306;2023-11-19T13:33:24;236.57;;;73.17;;
4533;SDS011;2279;51.448;7.306;2023-11-19T13:35:51;241.15;;;75.65;;
4533;SDS011;2279;51.448;7.306;2023-11-19T13:38:18;236.40;;;74.97;;
4533;SDS011;2279;51.448;7.306;2023-11-19T13:40:44;234.05;;;70.60;;
4533;SDS011;2279;51.448;7.306;2023-11-19T13:43:10;232.80;;;68.23;;
4533;SDS011;2279;51.448;7.306;2023-11-19T13:45:36;244.85;;;84.25;;
4533;SDS011;2279;51.448;7.306;2023-11-19T13:48:02;233.80;;;73.37;;
4533;SDS011;2279;51.448;7.306;2023-11-19T13:50:28;238.10;;;77.10;;
4533;SDS011;2279;51.448;7.306;2023-11-19T13:52:54;237.37;;;75.43;;
4533;SDS011;2279;51.448;7.306;2023-11-19T13:55:20;236.90;;;74.00;;
4533;SDS011;2279;51.448;7.306;2023-11-19T13:57:47;235.30;;;71.60;;
4533;SDS011;2279;51.448;7.306;2023-11-19T14:00:13;238.57;;;75.80;;
4533;SDS011;2279;51.448;7.306;2023-11-19T14:02:44;233.98;;;69.80;;
4533;SDS011;2279;51.448;7.306;2023-11-19T14:05:10;236.57;;;74.32;;
4533;SDS011;2279;51.448;7.306;2023-11-19T14:07:36;234.77;;;73.10;;
4533;SDS011;2279;51.448;7.306;2023-11-19T14:10:02;236.43;;;77.70;;
4533;SDS011;2279;51.448;7.306;2023-11-19T14:12:30;238.60;;;76.65;;
4533;SDS011;2279;51.448;7.306;2023-11-19T14:14:57;236.45;;;73.03;;
4533;SDS011;2279;51.448;7.306;2023-11-19T14:17:23;231.38;;;68.18;;
4533;SDS011;2279;51.448;7.306;2023-11-19T14:19:50;234.60;;;68.90;;
4533;SDS011;2279;51.448;7.306;2023-11-19T14:22:16;233.63;;;70.22;;
4533;SDS011;2279;51.448;7.306;2023-11-19T14:24:42;235.65;;;72.18;;
4533;SDS011;2279;51.448;7.306;2023-11-19T14:27:11;237.98;;;76.70;;
4533;SDS011;2279;51.448;7.306;2023-11-19T14:29:37;235.02;;;69.57;;
4533;SDS011;2279;51.448;7.306;2023-11-19T14:32:04;234.55;;;69.65;;
4533;SDS011;2279;51.448;7.306;2023-11-19T14:34:31;233.75;;;69.25;;
4533;SDS011;2279;51.448;7.306;2023-11-19T14:36:57;236.13;;;74.40;;
4533;SDS011;2279;51.448;7.306;2023-11-19T14:39:23;229.75;;;65.75;;
4533;SDS011;2279;51.448;7.306;2023-11-19T14:41:50;232.65;;;65.85;;
4533;SDS011;2279;51.448;7.306;2023-11-19T14:44:17;232.98;;;66.03;;
4533;SDS011;2279;51.448;7.306;2023-11-19T14:46:44;230.80;;;64.15;;
4533;SDS011;2279;51.448;7.306;2023-11-19T14:49:10;235.60;;;68.60;;
4533;SDS011;2279;51.448;7.306;2023-11-19T14:51:37;229.23;;;64.23;;